sensor_id;sensor_type;location;lat;lon;timestamp;temperature;humidity
17984;DHT22;9117;52.420;20.728;2023-02-28T00:00:22;-2.60;11.50
17984;DHT22;9117;52.420;20.728;2023-02-28T00:02:51;-2.70;10.90
17984;DHT22;9117;52.420;20.728;2023-02-28T00:05:22;-2.40;12.60
17984;DHT22;9117;52.420;20.728;2023-02-28T00:07:51;-2.70;14.60
17984;DHT22;9117;52.420;20.728;2023-02-28T00:10:22;-2.70;9.80
17984;DHT22;9117;52.420;20.728;2023-02-28T00:12:51;-2.70;10.60
17984;DHT22;9117;52.420;20.728;2023-02-28T00:15:20;-2.80;15.60
17984;DHT22;9117;52.420;20.728;2023-02-28T00:17:50;-2.60;13.30
17984;DHT22;9117;52.420;20.728;2023-02-28T00:20:18;-2.80;8.10
17984;DHT22;9117;52.420;20.728;2023-02-28T00:22:50;-2.90;3.60
17984;DHT22;9117;52.420;20.728;2023-02-28T00:25:22;-2.80;6.60
17984;DHT22;9117;52.420;20.728;2023-02-28T00:27:50;-2.70;2.10
17984;DHT22;9117;52.420;20.728;2023-02-28T00:30:20;-2.90;8.80
17984;DHT22;9117;52.420;20.728;2023-02-28T00:32:49;-2.90;8.00
17984;DHT22;9117;52.420;20.728;2023-02-28T00:35:17;-2.80;15.60
17984;DHT22;9117;52.420;20.728;2023-02-28T00:37:45;-2.90;15.40
17984;DHT22;9117;52.420;20.728;2023-02-28T00:40:17;-3.00;7.60
17984;DHT22;9117;52.420;20.728;2023-02-28T00:42:45;-3.10;16.40
17984;DHT22;9117;52.420;20.728;2023-02-28T00:45:13;-3.20;24.20
17984;DHT22;9117;52.420;20.728;2023-02-28T00:47:41;-3.10;22.80
17984;DHT22;9117;52.420;20.728;2023-02-28T00:50:10;-3.10;20.00
17984;DHT22;9117;52.420;20.728;2023-02-28T00:52:39;-3.00;13.50
17984;DHT22;9117;52.420;20.728;2023-02-28T00:55:07;-2.90;12.80
17984;DHT22;9117;52.420;20.728;2023-02-28T00:57:37;-2.90;10.80
17984;DHT22;9117;52.420;20.728;2023-02-28T01:00:06;-2.90;1.00
17984;DHT22;9117;52.420;20.728;2023-02-28T01:02:35;-2.90;6.80
17984;DHT22;9117;52.420;20.728;2023-02-28T01:05:03;-3.00;4.60
17984;DHT22;9117;52.420;20.728;2023-02-28T01:07:32;-3.00;1.60
17984;DHT22;9117;52.420;20.728;2023-02-28T01:10:00;-3.00;1.50
17984;DHT22;9117;52.420;20.728;2023-02-28T01:12:28;-2.80;8.80
17984;DHT22;9117;52.420;20.728;2023-02-28T01:14:58;-2.80;9.00
17984;DHT22;9117;52.420;20.728;2023-02-28T01:17:27;-3.00;11.10
17984;DHT22;9117;52.420;20.728;2023-02-28T01:19:55;-2.90;13.30
17984;DHT22;9117;52.420;20.728;2023-02-28T01:22:24;-2.90;1.00
17984;DHT22;9117;52.420;20.728;2023-02-28T01:24:52;-3.00;12.90
17984;DHT22;9117;52.420;20.728;2023-02-28T01:27:20;-2.90;16.80
17984;DHT22;9117;52.420;20.728;2023-02-28T01:29:50;-2.90;12.60
17984;DHT22;9117;52.420;20.728;2023-02-28T01:32:20;-2.90;15.50
17984;DHT22;9117;52.420;20.728;2023-02-28T01:34:48;-2.90;13.40
17984;DHT22;9117;52.420;20.728;2023-02-28T01:37:16;-2.90;16.20
17984;DHT22;9117;52.420;20.728;2023-02-28T01:39:44;-2.90;14.50
17984;DHT22;9117;52.420;20.728;2023-02-28T01:42:12;-2.90;17.40
17984;DHT22;9117;52.420;20.728;2023-02-28T01:45:04;-2.90;18.50
17984;DHT22;9117;52.420;20.728;2023-02-28T01:47:39;-2.90;22.00
17984;DHT22;9117;52.420;20.728;2023-02-28T01:50:12;-2.90;16.30
17984;DHT22;9117;52.420;20.728;2023-02-28T01:52:41;-2.90;17.50
17984;DHT22;9117;52.420;20.728;2023-02-28T01:55:11;-2.80;15.60
17984;DHT22;9117;52.420;20.728;2023-02-28T01:57:42;-2.90;9.70
17984;DHT22;9117;52.420;20.728;2023-02-28T02:00:13;-2.90;2.70
17984;DHT22;9117;52.420;20.728;2023-02-28T02:02:45;-2.90;11.60
17984;DHT22;9117;52.420;20.728;2023-02-28T02:05:16;-2.90;13.30
17984;DHT22;9117;52.420;20.728;2023-02-28T02:07:48;-3.00;8.60
17984;DHT22;9117;52.420;20.728;2023-02-28T02:10:18;-3.00;6.40
17984;DHT22;9117;52.420;20.728;2023-02-28T02:13:09;-3.00;1.00
17984;DHT22;9117;52.420;20.728;2023-02-28T02:15:44;-3.00;2.20
17984;DHT22;9117;52.420;20.728;2023-02-28T02:18:24;-3.10;6.70
17984;DHT22;9117;52.420;20.728;2023-02-28T02:24:28;-3.10;1.00
17984;DHT22;9117;52.420;20.728;2023-02-28T02:27:42;-3.10;1.00
17984;DHT22;9117;52.420;20.728;2023-02-28T02:30:47;-3.10;1.00
17984;DHT22;9117;52.420;20.728;2023-02-28T02:36:20;-3.00;1.00
17984;DHT22;9117;52.420;20.728;2023-02-28T02:38:53;-3.00;1.00
17984;DHT22;9117;52.420;20.728;2023-02-28T02:41:28;-3.00;1.00
17984;DHT22;9117;52.420;20.728;2023-02-28T02:44:04;-3.10;1.00
17984;DHT22;9117;52.420;20.728;2023-02-28T02:46:36;-3.10;1.00
17984;DHT22;9117;52.420;20.728;2023-02-28T02:49:09;-3.10;1.00
17984;DHT22;9117;52.420;20.728;2023-02-28T02:51:41;-3.20;1.00
17984;DHT22;9117;52.420;20.728;2023-02-28T02:54:12;-3.20;1.00
17984;DHT22;9117;52.420;20.728;2023-02-28T02:56:44;-3.30;1.00
17984;DHT22;9117;52.420;20.728;2023-02-28T02:59:17;-3.20;1.00
17984;DHT22;9117;52.420;20.728;2023-02-28T03:01:49;-3.20;1.00
17984;DHT22;9117;52.420;20.728;2023-02-28T03:04:20;-3.20;1.00
17984;DHT22;9117;52.420;20.728;2023-02-28T03:06:51;-3.30;1.00
17984;DHT22;9117;52.420;20.728;2023-02-28T03:09:21;-3.30;1.00
17984;DHT22;9117;52.420;20.728;2023-02-28T03:11:51;-3.30;1.00
17984;DHT22;9117;52.420;20.728;2023-02-28T03:14:35;-3.40;1.00
17984;DHT22;9117;52.420;20.728;2023-02-28T03:17:18;-3.30;1.00
17984;DHT22;9117;52.420;20.728;2023-02-28T03:19:58;-3.10;1.00
17984;DHT22;9117;52.420;20.728;2023-02-28T03:22:46;-3.30;1.00
17984;DHT22;9117;52.420;20.728;2023-02-28T03:25:27;-3.40;1.00
17984;DHT22;9117;52.420;20.728;2023-02-28T03:28:04;-3.40;1.00
17984;DHT22;9117;52.420;20.728;2023-02-28T03:30:40;-3.40;1.00
17984;DHT22;9117;52.420;20.728;2023-02-28T03:33:12;-3.50;1.00
17984;DHT22;9117;52.420;20.728;2023-02-28T03:35:44;-3.50;1.00
17984;DHT22;9117;52.420;20.728;2023-02-28T03:38:19;-3.50;1.00
17984;DHT22;9117;52.420;20.728;2023-02-28T03:40:51;-3.40;1.00
17984;DHT22;9117;52.420;20.728;2023-02-28T03:43:23;-3.50;1.00
17984;DHT22;9117;52.420;20.728;2023-02-28T03:45:55;-3.50;1.00
17984;DHT22;9117;52.420;20.728;2023-02-28T03:48:28;-3.50;1.00
17984;DHT22;9117;52.420;20.728;2023-02-28T03:50:59;-3.50;1.00
17984;DHT22;9117;52.420;20.728;2023-02-28T03:53:33;-3.50;1.00
17984;DHT22;9117;52.420;20.728;2023-02-28T03:56:07;-3.50;1.00
17984;DHT22;9117;52.420;20.728;2023-02-28T03:58:41;-3.60;1.00
17984;DHT22;9117;52.420;20.728;2023-02-28T04:01:15;-3.60;1.00
17984;DHT22;9117;52.420;20.728;2023-02-28T04:03:45;-3.60;1.00
17984;DHT22;9117;52.420;20.728;2023-02-28T04:06:16;-3.60;1.00
17984;DHT22;9117;52.420;20.728;2023-02-28T04:08:47;-3.50;1.00
17984;DHT22;9117;52.420;20.728;2023-02-28T04:11:20;-3.60;1.00
17984;DHT22;9117;52.420;20.728;2023-02-28T04:13:49;-3.60;1.00
17984;DHT22;9117;52.420;20.728;2023-02-28T04:16:17;-3.70;1.00
17984;DHT22;9117;52.420;20.728;2023-02-28T04:19:01;-3.80;1.00
17984;DHT22;9117;52.420;20.728;2023-02-28T04:21:31;-3.80;1.00
17984;DHT22;9117;52.420;20.728;2023-02-28T04:24:01;-3.80;1.00
17984;DHT22;9117;52.420;20.728;2023-02-28T04:26:29;-3.80;1.00
17984;DHT22;9117;52.420;20.728;2023-02-28T04:28:59;-3.80;1.00
17984;DHT22;9117;52.420;20.728;2023-02-28T04:31:27;-3.80;1.00
17984;DHT22;9117;52.420;20.728;2023-02-28T04:33:56;-3.60;1.00
17984;DHT22;9117;52.420;20.728;2023-02-28T04:36:25;-3.70;1.00
17984;DHT22;9117;52.420;20.728;2023-02-28T04:38:53;-3.90;1.00
17984;DHT22;9117;52.420;20.728;2023-02-28T04:41:23;-4.10;1.00
17984;DHT22;9117;52.420;20.728;2023-02-28T04:43:51;-4.00;1.00
17984;DHT22;9117;52.420;20.728;2023-02-28T04:46:20;-3.90;1.00
17984;DHT22;9117;52.420;20.728;2023-02-28T04:48:48;-4.10;1.00
17984;DHT22;9117;52.420;20.728;2023-02-28T04:51:18;-3.30;99.90
17984;DHT22;9117;52.420;20.728;2023-02-28T04:53:47;-4.00;1.00
17984;DHT22;9117;52.420;20.728;2023-02-28T04:56:17;-3.90;99.90
17984;DHT22;9117;52.420;20.728;2023-02-28T04:58:47;-4.00;1.00
17984;DHT22;9117;52.420;20.728;2023-02-28T05:01:19;-4.00;1.00
17984;DHT22;9117;52.420;20.728;2023-02-28T05:03:48;-4.00;99.90
17984;DHT22;9117;52.420;20.728;2023-02-28T05:06:17;-4.10;99.90
17984;DHT22;9117;52.420;20.728;2023-02-28T05:08:45;-4.00;1.00
17984;DHT22;9117;52.420;20.728;2023-02-28T05:11:17;-4.10;1.00
17984;DHT22;9117;52.420;20.728;2023-02-28T05:13:47;-4.00;1.00
17984;DHT22;9117;52.420;20.728;2023-02-28T05:16:16;-4.00;99.90
17984;DHT22;9117;52.420;20.728;2023-02-28T05:18:45;-4.10;99.90
17984;DHT22;9117;52.420;20.728;2023-02-28T05:21:24;-4.00;1.00
17984;DHT22;9117;52.420;20.728;2023-02-28T05:23:53;-4.00;1.00
17984;DHT22;9117;52.420;20.728;2023-02-28T05:26:22;-4.00;99.90
17984;DHT22;9117;52.420;20.728;2023-02-28T05:28:52;-4.10;99.90
17984;DHT22;9117;52.420;20.728;2023-02-28T05:31:20;-4.10;99.90
17984;DHT22;9117;52.420;20.728;2023-02-28T05:33:48;-4.10;99.90
17984;DHT22;9117;52.420;20.728;2023-02-28T05:36:17;-4.10;1.00
17984;DHT22;9117;52.420;20.728;2023-02-28T05:38:46;-4.10;1.00
17984;DHT22;9117;52.420;20.728;2023-02-28T05:41:16;-3.90;24.10
17984;DHT22;9117;52.420;20.728;2023-02-28T05:43:46;-4.10;1.00
17984;DHT22;9117;52.420;20.728;2023-02-28T05:46:16;-4.00;1.00
17984;DHT22;9117;52.420;20.728;2023-02-28T05:48:47;-4.00;1.00
17984;DHT22;9117;52.420;20.728;2023-02-28T05:51:16;-4.00;1.00
17984;DHT22;9117;52.420;20.728;2023-02-28T05:53:45;-4.00;1.00
17984;DHT22;9117;52.420;20.728;2023-02-28T05:56:13;-4.00;1.00
17984;DHT22;9117;52.420;20.728;2023-02-28T05:58:41;-4.10;1.00
17984;DHT22;9117;52.420;20.728;2023-02-28T06:01:22;-4.10;1.00
17984;DHT22;9117;52.420;20.728;2023-02-28T06:03:51;-4.10;1.00
17984;DHT22;9117;52.420;20.728;2023-02-28T06:06:19;-4.00;1.00
17984;DHT22;9117;52.420;20.728;2023-02-28T06:08:47;-4.00;1.00
17984;DHT22;9117;52.420;20.728;2023-02-28T06:11:15;-3.80;1.00
17984;DHT22;9117;52.420;20.728;2023-02-28T06:13:44;-3.70;1.00
17984;DHT22;9117;52.420;20.728;2023-02-28T06:16:12;-4.00;1.00
17984;DHT22;9117;52.420;20.728;2023-02-28T06:18:42;-3.90;1.00
17984;DHT22;9117;52.420;20.728;2023-02-28T06:21:10;-3.90;1.00
17984;DHT22;9117;52.420;20.728;2023-02-28T06:23:39;-3.90;1.00
17984;DHT22;9117;52.420;20.728;2023-02-28T06:26:07;-3.80;1.00
17984;DHT22;9117;52.420;20.728;2023-02-28T06:28:36;-3.80;1.00
17984;DHT22;9117;52.420;20.728;2023-02-28T06:31:08;-3.70;1.00
17984;DHT22;9117;52.420;20.728;2023-02-28T06:33:38;-2.70;1.00
17984;DHT22;9117;52.420;20.728;2023-02-28T06:36:08;-3.70;1.00
17984;DHT22;9117;52.420;20.728;2023-02-28T06:38:37;-3.70;1.00
17984;DHT22;9117;52.420;20.728;2023-02-28T06:41:06;-3.40;1.00
17984;DHT22;9117;52.420;20.728;2023-02-28T06:43:36;-2.90;1.00
17984;DHT22;9117;52.420;20.728;2023-02-28T06:46:06;-3.50;1.00
17984;DHT22;9117;52.420;20.728;2023-02-28T06:48:35;-3.30;1.00
17984;DHT22;9117;52.420;20.728;2023-02-28T06:51:05;-3.40;1.00
17984;DHT22;9117;52.420;20.728;2023-02-28T06:53:36;-3.50;1.00
17984;DHT22;9117;52.420;20.728;2023-02-28T06:56:04;-3.40;1.00
17984;DHT22;9117;52.420;20.728;2023-02-28T06:58:33;-3.40;1.00
17984;DHT22;9117;52.420;20.728;2023-02-28T07:01:02;-3.20;1.00
17984;DHT22;9117;52.420;20.728;2023-02-28T07:03:31;-3.20;1.00
17984;DHT22;9117;52.420;20.728;2023-02-28T07:06:00;-3.20;1.00
17984;DHT22;9117;52.420;20.728;2023-02-28T07:08:29;-3.10;1.00
17984;DHT22;9117;52.420;20.728;2023-02-28T07:10:59;-2.90;1.00
17984;DHT22;9117;52.420;20.728;2023-02-28T07:13:28;-2.80;1.00
17984;DHT22;9117;52.420;20.728;2023-02-28T07:15:58;-2.80;1.00
17984;DHT22;9117;52.420;20.728;2023-02-28T07:18:27;-2.70;1.00
17984;DHT22;9117;52.420;20.728;2023-02-28T07:20:55;-2.70;1.00
17984;DHT22;9117;52.420;20.728;2023-02-28T07:23:24;-2.60;1.00
17984;DHT22;9117;52.420;20.728;2023-02-28T07:25:52;-2.50;1.00
17984;DHT22;9117;52.420;20.728;2023-02-28T07:28:21;-2.40;1.00
17984;DHT22;9117;52.420;20.728;2023-02-28T07:30:50;-2.90;1.00
17984;DHT22;9117;52.420;20.728;2023-02-28T07:33:18;-2.30;1.00
17984;DHT22;9117;52.420;20.728;2023-02-28T07:35:46;-2.20;1.00
17984;DHT22;9117;52.420;20.728;2023-02-28T07:38:14;-2.10;1.00
17984;DHT22;9117;52.420;20.728;2023-02-28T07:40:43;-2.10;1.00
17984;DHT22;9117;52.420;20.728;2023-02-28T07:43:11;-1.90;1.00
17984;DHT22;9117;52.420;20.728;2023-02-28T07:45:40;-1.80;1.00
17984;DHT22;9117;52.420;20.728;2023-02-28T07:48:08;-1.60;1.00
17984;DHT22;9117;52.420;20.728;2023-02-28T07:50:37;-1.50;1.00
17984;DHT22;9117;52.420;20.728;2023-02-28T07:53:05;-1.50;1.00
17984;DHT22;9117;52.420;20.728;2023-02-28T07:55:33;-1.40;1.00
17984;DHT22;9117;52.420;20.728;2023-02-28T07:58:01;-1.20;1.00
17984;DHT22;9117;52.420;20.728;2023-02-28T08:00:29;-1.10;1.00
17984;DHT22;9117;52.420;20.728;2023-02-28T08:03:00;-1.00;1.00
17984;DHT22;9117;52.420;20.728;2023-02-28T08:05:28;-0.70;1.00
17984;DHT22;9117;52.420;20.728;2023-02-28T08:07:56;-0.80;1.00
17984;DHT22;9117;52.420;20.728;2023-02-28T08:10:25;-0.70;8.80
17984;DHT22;9117;52.420;20.728;2023-02-28T08:12:53;-0.70;17.60
17984;DHT22;9117;52.420;20.728;2023-02-28T08:15:21;-0.50;1.00
17984;DHT22;9117;52.420;20.728;2023-02-28T08:17:49;-0.40;1.00
17984;DHT22;9117;52.420;20.728;2023-02-28T08:20:19;-0.50;1.00
17984;DHT22;9117;52.420;20.728;2023-02-28T08:22:47;-0.50;1.00
17984;DHT22;9117;52.420;20.728;2023-02-28T08:25:15;-0.40;4.20
17984;DHT22;9117;52.420;20.728;2023-02-28T08:27:43;-0.40;1.80
17984;DHT22;9117;52.420;20.728;2023-02-28T08:30:13;-0.20;7.30
17984;DHT22;9117;52.420;20.728;2023-02-28T08:32:42;-0.10;1.00
17984;DHT22;9117;52.420;20.728;2023-02-28T08:35:10;0.10;2.50
17984;DHT22;9117;52.420;20.728;2023-02-28T08:37:40;0.20;15.40
17984;DHT22;9117;52.420;20.728;2023-02-28T08:40:09;0.20;20.70
17984;DHT22;9117;52.420;20.728;2023-02-28T08:42:37;0.20;14.30
17984;DHT22;9117;52.420;20.728;2023-02-28T08:45:06;0.30;16.60
17984;DHT22;9117;52.420;20.728;2023-02-28T08:47:35;0.30;24.40
17984;DHT22;9117;52.420;20.728;2023-02-28T08:50:04;0.20;15.00
17984;DHT22;9117;52.420;20.728;2023-02-28T08:52:32;0.10;21.60
17984;DHT22;9117;52.420;20.728;2023-02-28T08:55:02;0.00;23.10
17984;DHT22;9117;52.420;20.728;2023-02-28T08:57:30;-0.10;23.90
17984;DHT22;9117;52.420;20.728;2023-02-28T08:59:58;0.00;28.90
17984;DHT22;9117;52.420;20.728;2023-02-28T09:02:26;0.00;28.70
17984;DHT22;9117;52.420;20.728;2023-02-28T09:04:55;0.10;28.00
17984;DHT22;9117;52.420;20.728;2023-02-28T09:07:23;0.10;30.70
17984;DHT22;9117;52.420;20.728;2023-02-28T09:09:51;0.30;31.30
17984;DHT22;9117;52.420;20.728;2023-02-28T09:12:25;0.50;35.00
17984;DHT22;9117;52.420;20.728;2023-02-28T09:14:53;1.10;44.00
17984;DHT22;9117;52.420;20.728;2023-02-28T09:17:21;0.20;37.80
17984;DHT22;9117;52.420;20.728;2023-02-28T09:19:56;0.20;41.70
17984;DHT22;9117;52.420;20.728;2023-02-28T09:22:25;0.40;42.90
17984;DHT22;9117;52.420;20.728;2023-02-28T09:24:53;0.50;37.60
17984;DHT22;9117;52.420;20.728;2023-02-28T09:27:23;0.90;38.30
17984;DHT22;9117;52.420;20.728;2023-02-28T09:29:51;0.60;41.60
17984;DHT22;9117;52.420;20.728;2023-02-28T09:32:19;0.50;39.20
17984;DHT22;9117;52.420;20.728;2023-02-28T09:34:47;0.50;43.30
17984;DHT22;9117;52.420;20.728;2023-02-28T09:37:15;0.50;44.40
17984;DHT22;9117;52.420;20.728;2023-02-28T09:39:44;0.50;34.40
17984;DHT22;9117;52.420;20.728;2023-02-28T09:42:21;0.50;39.00
17984;DHT22;9117;52.420;20.728;2023-02-28T09:44:51;0.50;41.10
17984;DHT22;9117;52.420;20.728;2023-02-28T09:47:27;0.60;37.50
17984;DHT22;9117;52.420;20.728;2023-02-28T09:49:57;0.70;40.10
17984;DHT22;9117;52.420;20.728;2023-02-28T09:52:29;0.70;39.60
17984;DHT22;9117;52.420;20.728;2023-02-28T09:55:01;1.00;36.70
17984;DHT22;9117;52.420;20.728;2023-02-28T09:57:37;1.20;39.40
17984;DHT22;9117;52.420;20.728;2023-02-28T10:00:14;1.10;40.70
17984;DHT22;9117;52.420;20.728;2023-02-28T10:03:04;1.30;40.30
17984;DHT22;9117;52.420;20.728;2023-02-28T10:05:36;1.40;37.00
17984;DHT22;9117;52.420;20.728;2023-02-28T10:08:14;1.40;42.00
17984;DHT22;9117;52.420;20.728;2023-02-28T10:10:44;1.30;43.80
17984;DHT22;9117;52.420;20.728;2023-02-28T10:13:20;1.30;40.00
17984;DHT22;9117;52.420;20.728;2023-02-28T10:15:54;1.30;41.40
17984;DHT22;9117;52.420;20.728;2023-02-28T10:18:26;1.30;41.70
17984;DHT22;9117;52.420;20.728;2023-02-28T10:20:56;1.30;34.10
17984;DHT22;9117;52.420;20.728;2023-02-28T10:23:27;1.20;41.90
17984;DHT22;9117;52.420;20.728;2023-02-28T10:25:59;1.20;33.70
17984;DHT22;9117;52.420;20.728;2023-02-28T10:28:29;1.50;39.90
17984;DHT22;9117;52.420;20.728;2023-02-28T10:31:00;1.70;35.70
17984;DHT22;9117;52.420;20.728;2023-02-28T10:33:30;1.80;37.90
17984;DHT22;9117;52.420;20.728;2023-02-28T10:35:58;1.80;38.90
17984;DHT22;9117;52.420;20.728;2023-02-28T10:38:32;2.20;35.30
17984;DHT22;9117;52.420;20.728;2023-02-28T10:41:06;2.30;35.60
17984;DHT22;9117;52.420;20.728;2023-02-28T10:43:35;1.90;37.00
17984;DHT22;9117;52.420;20.728;2023-02-28T10:46:13;2.10;40.00
17984;DHT22;9117;52.420;20.728;2023-02-28T10:49:02;2.60;35.30
17984;DHT22;9117;52.420;20.728;2023-02-28T10:51:36;3.10;36.80
17984;DHT22;9117;52.420;20.728;2023-02-28T10:54:04;3.40;34.90
17984;DHT22;9117;52.420;20.728;2023-02-28T10:56:33;3.90;35.30
17984;DHT22;9117;52.420;20.728;2023-02-28T10:59:28;4.30;37.30
17984;DHT22;9117;52.420;20.728;2023-02-28T11:01:52;4.70;37.80
17984;DHT22;9117;52.420;20.728;2023-02-28T11:04:33;5.10;44.00
17984;DHT22;9117;52.420;20.728;2023-02-28T11:07:04;4.60;49.70
17984;DHT22;9117;52.420;20.728;2023-02-28T11:09:34;3.70;44.70
17984;DHT22;9117;52.420;20.728;2023-02-28T11:12:05;3.00;41.70
17984;DHT22;9117;52.420;20.728;2023-02-28T11:14:37;3.80;47.60
17984;DHT22;9117;52.420;20.728;2023-02-28T11:17:15;3.20;46.70
17984;DHT22;9117;52.420;20.728;2023-02-28T11:19:50;3.00;46.30
17984;DHT22;9117;52.420;20.728;2023-02-28T11:22:22;3.10;50.00
17984;DHT22;9117;52.420;20.728;2023-02-28T11:24:53;3.70;49.40
17984;DHT22;9117;52.420;20.728;2023-02-28T11:27:40;3.70;49.30
17984;DHT22;9117;52.420;20.728;2023-02-28T11:30:25;3.70;46.30
17984;DHT22;9117;52.420;20.728;2023-02-28T11:32:54;4.20;44.70
17984;DHT22;9117;52.420;20.728;2023-02-28T11:35:26;4.70;43.90
17984;DHT22;9117;52.420;20.728;2023-02-28T11:37:57;5.10;46.50
17984;DHT22;9117;52.420;20.728;2023-02-28T11:40:34;6.20;46.50
17984;DHT22;9117;52.420;20.728;2023-02-28T11:43:19;6.00;45.00
17984;DHT22;9117;52.420;20.728;2023-02-28T11:46:06;6.40;39.30
17984;DHT22;9117;52.420;20.728;2023-02-28T11:48:45;6.30;48.30
17984;DHT22;9117;52.420;20.728;2023-02-28T11:51:21;6.30;44.80
17984;DHT22;9117;52.420;20.728;2023-02-28T11:54:17;7.10;46.80
17984;DHT22;9117;52.420;20.728;2023-02-28T11:56:53;6.10;49.30
17984;DHT22;9117;52.420;20.728;2023-02-28T11:59:35;5.80;45.70
17984;DHT22;9117;52.420;20.728;2023-02-28T12:02:26;5.50;45.10
17984;DHT22;9117;52.420;20.728;2023-02-28T12:05:21;5.80;46.00
17984;DHT22;9117;52.420;20.728;2023-02-28T12:07:59;6.60;45.90
17984;DHT22;9117;52.420;20.728;2023-02-28T12:10:30;7.20;45.50
17984;DHT22;9117;52.420;20.728;2023-02-28T12:13:12;6.90;41.50
17984;DHT22;9117;52.420;20.728;2023-02-28T12:16:07;7.00;44.10
17984;DHT22;9117;52.420;20.728;2023-02-28T12:18:50;6.80;46.70
17984;DHT22;9117;52.420;20.728;2023-02-28T12:21:31;6.60;44.80
17984;DHT22;9117;52.420;20.728;2023-02-28T12:24:15;6.80;42.50
17984;DHT22;9117;52.420;20.728;2023-02-28T12:26:47;6.40;43.30
17984;DHT22;9117;52.420;20.728;2023-02-28T12:29:19;6.00;45.90
17984;DHT22;9117;52.420;20.728;2023-02-28T12:31:54;5.50;46.00
17984;DHT22;9117;52.420;20.728;2023-02-28T12:34:28;5.00;44.50
17984;DHT22;9117;52.420;20.728;2023-02-28T12:37:03;4.80;43.20
17984;DHT22;9117;52.420;20.728;2023-02-28T12:39:37;4.80;42.80
17984;DHT22;9117;52.420;20.728;2023-02-28T12:42:19;5.30;48.70
17984;DHT22;9117;52.420;20.728;2023-02-28T12:44:54;5.30;45.30
17984;DHT22;9117;52.420;20.728;2023-02-28T12:47:24;5.50;48.20
17984;DHT22;9117;52.420;20.728;2023-02-28T12:49:55;5.40;46.10
17984;DHT22;9117;52.420;20.728;2023-02-28T12:52:34;5.60;48.20
17984;DHT22;9117;52.420;20.728;2023-02-28T12:55:11;5.80;48.60
17984;DHT22;9117;52.420;20.728;2023-02-28T12:57:45;5.80;47.50
17984;DHT22;9117;52.420;20.728;2023-02-28T13:00:17;5.70;46.60
17984;DHT22;9117;52.420;20.728;2023-02-28T13:03:06;5.70;45.80
17984;DHT22;9117;52.420;20.728;2023-02-28T13:06:03;5.90;45.20
17984;DHT22;9117;52.420;20.728;2023-02-28T13:11:41;6.10;47.50
17984;DHT22;9117;52.420;20.728;2023-02-28T13:14:35;6.10;47.10
17984;DHT22;9117;52.420;20.728;2023-02-28T13:17:11;6.40;49.10
17984;DHT22;9117;52.420;20.728;2023-02-28T13:19:43;6.60;43.40
17984;DHT22;9117;52.420;20.728;2023-02-28T13:22:19;7.00;44.30
17984;DHT22;9117;52.420;20.728;2023-02-28T13:24:51;7.30;44.30
17984;DHT22;9117;52.420;20.728;2023-02-28T13:27:32;7.60;43.40
17984;DHT22;9117;52.420;20.728;2023-02-28T13:30:01;7.60;42.60
17984;DHT22;9117;52.420;20.728;2023-02-28T13:33:21;7.50;41.00
17984;DHT22;9117;52.420;20.728;2023-02-28T13:36:08;7.70;43.00
17984;DHT22;9117;52.420;20.728;2023-02-28T13:38:39;7.90;44.20
17984;DHT22;9117;52.420;20.728;2023-02-28T13:41:44;8.10;42.70
17984;DHT22;9117;52.420;20.728;2023-02-28T13:44:15;8.50;44.00
17984;DHT22;9117;52.420;20.728;2023-02-28T13:47:19;8.50;42.80
17984;DHT22;9117;52.420;20.728;2023-02-28T13:49:50;7.90;41.40
17984;DHT22;9117;52.420;20.728;2023-02-28T13:52:21;8.80;41.40
17984;DHT22;9117;52.420;20.728;2023-02-28T13:55:15;8.70;39.00
17984;DHT22;9117;52.420;20.728;2023-02-28T13:58:09;9.00;38.30
17984;DHT22;9117;52.420;20.728;2023-02-28T14:01:02;8.60;36.40
17984;DHT22;9117;52.420;20.728;2023-02-28T14:03:47;7.90;37.80
17984;DHT22;9117;52.420;20.728;2023-02-28T14:06:25;8.90;39.60
17984;DHT22;9117;52.420;20.728;2023-02-28T14:08:58;9.70;36.30
17984;DHT22;9117;52.420;20.728;2023-02-28T14:11:30;10.30;33.70
17984;DHT22;9117;52.420;20.728;2023-02-28T14:14:01;9.60;34.90
17984;DHT22;9117;52.420;20.728;2023-02-28T14:16:38;10.50;34.50
17984;DHT22;9117;52.420;20.728;2023-02-28T14:19:12;10.90;33.70
17984;DHT22;9117;52.420;20.728;2023-02-28T14:21:51;10.20;34.50
17984;DHT22;9117;52.420;20.728;2023-02-28T14:24:48;10.60;30.80
17984;DHT22;9117;52.420;20.728;2023-02-28T14:27:29;10.10;32.00
17984;DHT22;9117;52.420;20.728;2023-02-28T14:33:19;8.80;32.20
17984;DHT22;9117;52.420;20.728;2023-02-28T14:36:01;9.90;32.20
17984;DHT22;9117;52.420;20.728;2023-02-28T14:38:33;10.10;30.70
17984;DHT22;9117;52.420;20.728;2023-02-28T14:41:06;8.90;30.50
17984;DHT22;9117;52.420;20.728;2023-02-28T14:43:48;8.00;31.40
17984;DHT22;9117;52.420;20.728;2023-02-28T14:46:17;7.80;31.40
17984;DHT22;9117;52.420;20.728;2023-02-28T14:48:48;8.60;31.80
17984;DHT22;9117;52.420;20.728;2023-02-28T14:51:22;9.00;33.70
17984;DHT22;9117;52.420;20.728;2023-02-28T14:53:57;9.20;29.50
17984;DHT22;9117;52.420;20.728;2023-02-28T14:56:33;7.60;29.70
17984;DHT22;9117;52.420;20.728;2023-02-28T14:59:03;7.20;32.10
17984;DHT22;9117;52.420;20.728;2023-02-28T15:01:32;7.20;33.30
17984;DHT22;9117;52.420;20.728;2023-02-28T15:04:04;8.20;33.30
17984;DHT22;9117;52.420;20.728;2023-02-28T15:06:33;7.20;31.30
17984;DHT22;9117;52.420;20.728;2023-02-28T15:09:09;7.40;32.40
17984;DHT22;9117;52.420;20.728;2023-02-28T15:11:38;7.10;34.60
17984;DHT22;9117;52.420;20.728;2023-02-28T15:14:12;6.40;35.30
17984;DHT22;9117;52.420;20.728;2023-02-28T15:16:43;6.10;36.20
17984;DHT22;9117;52.420;20.728;2023-02-28T15:19:17;5.90;34.30
17984;DHT22;9117;52.420;20.728;2023-02-28T15:21:50;6.60;34.50
17984;DHT22;9117;52.420;20.728;2023-02-28T15:24:23;6.40;35.40
17984;DHT22;9117;52.420;20.728;2023-02-28T15:26:56;6.70;35.10
17984;DHT22;9117;52.420;20.728;2023-02-28T15:29:27;6.70;34.00
17984;DHT22;9117;52.420;20.728;2023-02-28T15:31:58;6.50;35.10
17984;DHT22;9117;52.420;20.728;2023-02-28T15:34:34;5.80;35.30
17984;DHT22;9117;52.420;20.728;2023-02-28T15:40:15;5.60;36.20
17984;DHT22;9117;52.420;20.728;2023-02-28T15:42:58;5.20;36.60
17984;DHT22;9117;52.420;20.728;2023-02-28T15:45:28;5.10;36.40
17984;DHT22;9117;52.420;20.728;2023-02-28T15:48:01;4.50;37.00
17984;DHT22;9117;52.420;20.728;2023-02-28T15:50:41;4.50;35.70
17984;DHT22;9117;52.420;20.728;2023-02-28T15:53:13;4.50;35.40
17984;DHT22;9117;52.420;20.728;2023-02-28T15:55:43;4.40;36.00
17984;DHT22;9117;52.420;20.728;2023-02-28T15:58:12;4.30;36.40
17984;DHT22;9117;52.420;20.728;2023-02-28T16:00:43;4.10;39.70
17984;DHT22;9117;52.420;20.728;2023-02-28T16:03:40;3.90;39.00
17984;DHT22;9117;52.420;20.728;2023-02-28T16:06:30;3.50;39.60
17984;DHT22;9117;52.420;20.728;2023-02-28T16:08:59;3.40;40.40
17984;DHT22;9117;52.420;20.728;2023-02-28T16:11:28;3.00;41.00
17984;DHT22;9117;52.420;20.728;2023-02-28T16:13:57;2.70;41.80
17984;DHT22;9117;52.420;20.728;2023-02-28T16:16:26;2.50;44.40
17984;DHT22;9117;52.420;20.728;2023-02-28T16:18:55;2.40;49.40
17984;DHT22;9117;52.420;20.728;2023-02-28T16:21:25;2.30;48.70
17984;DHT22;9117;52.420;20.728;2023-02-28T16:23:54;2.30;46.20
17984;DHT22;9117;52.420;20.728;2023-02-28T16:26:25;2.10;49.30
17984;DHT22;9117;52.420;20.728;2023-02-28T16:29:00;1.90;51.90
17984;DHT22;9117;52.420;20.728;2023-02-28T16:31:36;1.80;54.20
17984;DHT22;9117;52.420;20.728;2023-02-28T16:34:05;1.70;53.70
17984;DHT22;9117;52.420;20.728;2023-02-28T16:36:35;1.60;55.60